sensor_id;sensor_type;location;lat;lon;timestamp;temperature;humidity
15413;DHT22;7805;49.554;7.632;2023-09-07T00:01:05;17.00;99.90
15413;DHT22;7805;49.554;7.632;2023-09-07T00:03:31;16.90;99.90
15413;DHT22;7805;49.554;7.632;2023-09-07T00:05:57;16.90;99.90
15413;DHT22;7805;49.554;7.632;2023-09-07T00:08:22;18.40;99.90
15413;DHT22;7805;49.554;7.632;2023-09-07T00:10:50;16.80;99.90
15413;DHT22;7805;49.554;7.632;2023-09-07T00:13:15;16.80;99.90
15413;DHT22;7805;49.554;7.632;2023-09-07T00:15:42;16.80;99.90
15413;DHT22;7805;49.554;7.632;2023-09-07T00:18:08;16.80;99.90
15413;DHT22;7805;49.554;7.632;2023-09-07T00:20:33;16.80;99.90
15413;DHT22;7805;49.554;7.632;2023-09-07T00:23:00;16.80;99.90
15413;DHT22;7805;49.554;7.632;2023-09-07T00:25:26;16.70;99.90
15413;DHT22;7805;49.554;7.632;2023-09-07T00:27:51;16.70;99.90
15413;DHT22;7805;49.554;7.632;2023-09-07T00:30:17;16.60;99.90
15413;DHT22;7805;49.554;7.632;2023-09-07T00:32:44;16.50;99.90
15413;DHT22;7805;49.554;7.632;2023-09-07T00:35:12;16.50;99.90
15413;DHT22;7805;49.554;7.632;2023-09-07T00:37:39;16.40;99.90
15413;DHT22;7805;49.554;7.632;2023-09-07T00:40:06;16.40;99.90
15413;DHT22;7805;49.554;7.632;2023-09-07T00:42:36;16.40;99.90
15413;DHT22;7805;49.554;7.632;2023-09-07T00:45:13;16.40;99.90
15413;DHT22;7805;49.554;7.632;2023-09-07T00:47:43;16.30;99.90
15413;DHT22;7805;49.554;7.632;2023-09-07T00:50:12;16.30;99.90
15413;DHT22;7805;49.554;7.632;2023-09-07T00:52:43;16.30;99.90
15413;DHT22;7805;49.554;7.632;2023-09-07T00:55:09;16.30;99.90
15413;DHT22;7805;49.554;7.632;2023-09-07T00:57:36;16.30;99.90
15413;DHT22;7805;49.554;7.632;2023-09-07T01:00:04;16.20;99.90
15413;DHT22;7805;49.554;7.632;2023-09-07T01:02:31;16.20;99.90
15413;DHT22;7805;49.554;7.632;2023-09-07T01:04:57;16.20;99.90
15413;DHT22;7805;49.554;7.632;2023-09-07T01:07:35;16.20;99.90
15413;DHT22;7805;49.554;7.632;2023-09-07T01:10:02;16.10;99.90
15413;DHT22;7805;49.554;7.632;2023-09-07T01:12:28;16.10;99.90
15413;DHT22;7805;49.554;7.632;2023-09-07T01:14:53;16.10;99.90
15413;DHT22;7805;49.554;7.632;2023-09-07T01:17:20;16.10;99.90
15413;DHT22;7805;49.554;7.632;2023-09-07T01:19:50;16.10;99.90
15413;DHT22;7805;49.554;7.632;2023-09-07T01:22:21;16.20;99.90
15413;DHT22;7805;49.554;7.632;2023-09-07T01:24:50;16.00;99.90
15413;DHT22;7805;49.554;7.632;2023-09-07T01:27:17;16.00;99.90
15413;DHT22;7805;49.554;7.632;2023-09-07T01:29:43;16.00;99.90
15413;DHT22;7805;49.554;7.632;2023-09-07T01:32:09;16.00;99.90
15413;DHT22;7805;49.554;7.632;2023-09-07T01:34:36;15.90;99.90
15413;DHT22;7805;49.554;7.632;2023-09-07T01:37:01;15.90;99.90
15413;DHT22;7805;49.554;7.632;2023-09-07T01:39:27;15.90;99.90
15413;DHT22;7805;49.554;7.632;2023-09-07T01:41:53;15.90;99.90
15413;DHT22;7805;49.554;7.632;2023-09-07T01:44:19;15.90;99.90
15413;DHT22;7805;49.554;7.632;2023-09-07T01:46:45;15.90;99.90
15413;DHT22;7805;49.554;7.632;2023-09-07T01:49:10;15.80;99.90
15413;DHT22;7805;49.554;7.632;2023-09-07T01:51:36;15.80;99.90
15413;DHT22;7805;49.554;7.632;2023-09-07T01:54:02;15.70;99.90
15413;DHT22;7805;49.554;7.632;2023-09-07T01:56:28;15.70;99.90
15413;DHT22;7805;49.554;7.632;2023-09-07T01:58:54;15.70;99.90
15413;DHT22;7805;49.554;7.632;2023-09-07T02:01:24;15.70;99.90
15413;DHT22;7805;49.554;7.632;2023-09-07T02:03:50;15.70;99.90
15413;DHT22;7805;49.554;7.632;2023-09-07T02:06:16;15.70;99.90
15413;DHT22;7805;49.554;7.632;2023-09-07T02:08:42;15.70;99.90
15413;DHT22;7805;49.554;7.632;2023-09-07T02:11:08;15.70;99.90
15413;DHT22;7805;49.554;7.632;2023-09-07T02:13:33;15.70;99.90
15413;DHT22;7805;49.554;7.632;2023-09-07T02:16:03;15.60;99.90
15413;DHT22;7805;49.554;7.632;2023-09-07T02:18:29;15.50;99.90
15413;DHT22;7805;49.554;7.632;2023-09-07T02:20:54;15.50;99.90
15413;DHT22;7805;49.554;7.632;2023-09-07T02:23:20;15.50;99.90
15413;DHT22;7805;49.554;7.632;2023-09-07T02:25:45;15.50;99.90
15413;DHT22;7805;49.554;7.632;2023-09-07T02:28:11;15.50;99.90
15413;DHT22;7805;49.554;7.632;2023-09-07T02:30:36;15.50;99.90
15413;DHT22;7805;49.554;7.632;2023-09-07T02:33:02;15.70;99.90
15413;DHT22;7805;49.554;7.632;2023-09-07T02:35:29;15.50;99.90
15413;DHT22;7805;49.554;7.632;2023-09-07T02:37:56;15.40;99.90
15413;DHT22;7805;49.554;7.632;2023-09-07T02:40:22;15.40;99.90
15413;DHT22;7805;49.554;7.632;2023-09-07T02:42:48;15.40;99.90
15413;DHT22;7805;49.554;7.632;2023-09-07T02:45:14;15.40;99.90
15413;DHT22;7805;49.554;7.632;2023-09-07T02:47:40;15.40;99.90
15413;DHT22;7805;49.554;7.632;2023-09-07T02:50:06;15.40;99.90
15413;DHT22;7805;49.554;7.632;2023-09-07T02:52:32;15.40;99.90
15413;DHT22;7805;49.554;7.632;2023-09-07T02:54:58;15.40;99.90
15413;DHT22;7805;49.554;7.632;2023-09-07T02:57:23;15.40;99.90
15413;DHT22;7805;49.554;7.632;2023-09-07T02:59:51;15.40;99.90
15413;DHT22;7805;49.554;7.632;2023-09-07T03:02:17;15.40;99.90
15413;DHT22;7805;49.554;7.632;2023-09-07T03:04:42;15.30;99.90
15413;DHT22;7805;49.554;7.632;2023-09-07T03:07:08;15.20;99.90
15413;DHT22;7805;49.554;7.632;2023-09-07T03:09:34;15.20;99.90
15413;DHT22;7805;49.554;7.632;2023-09-07T03:12:00;15.20;99.90
15413;DHT22;7805;49.554;7.632;2023-09-07T03:14:26;15.20;99.90
15413;DHT22;7805;49.554;7.632;2023-09-07T03:16:52;15.20;99.90
15413;DHT22;7805;49.554;7.632;2023-09-07T03:19:20;15.20;99.90
15413;DHT22;7805;49.554;7.632;2023-09-07T03:21:46;15.20;99.90
15413;DHT22;7805;49.554;7.632;2023-09-07T03:24:15;15.20;99.90
15413;DHT22;7805;49.554;7.632;2023-09-07T03:26:43;15.20;99.90
15413;DHT22;7805;49.554;7.632;2023-09-07T03:29:09;15.20;99.90
15413;DHT22;7805;49.554;7.632;2023-09-07T03:31:35;15.20;99.90
15413;DHT22;7805;49.554;7.632;2023-09-07T03:34:02;15.20;99.90
15413;DHT22;7805;49.554;7.632;2023-09-07T03:36:28;15.10;99.90
15413;DHT22;7805;49.554;7.632;2023-09-07T03:38:54;15.00;99.90
15413;DHT22;7805;49.554;7.632;2023-09-07T03:41:19;15.00;99.90
15413;DHT22;7805;49.554;7.632;2023-09-07T03:43:45;15.00;99.90
15413;DHT22;7805;49.554;7.632;2023-09-07T03:46:11;15.00;99.90
15413;DHT22;7805;49.554;7.632;2023-09-07T03:48:36;14.70;99.90
15413;DHT22;7805;49.554;7.632;2023-09-07T03:51:06;15.00;99.90
15413;DHT22;7805;49.554;7.632;2023-09-07T03:53:31;15.00;99.90
15413;DHT22;7805;49.554;7.632;2023-09-07T03:55:57;14.90;99.90
15413;DHT22;7805;49.554;7.632;2023-09-07T03:58:22;14.90;99.90
15413;DHT22;7805;49.554;7.632;2023-09-07T04:00:49;14.90;99.90
15413;DHT22;7805;49.554;7.632;2023-09-07T04:03:14;14.90;99.90
15413;DHT22;7805;49.554;7.632;2023-09-07T04:05:40;14.90;99.90
15413;DHT22;7805;49.554;7.632;2023-09-07T04:08:06;14.90;99.90
15413;DHT22;7805;49.554;7.632;2023-09-07T04:10:32;14.90;99.90
15413;DHT22;7805;49.554;7.632;2023-09-07T04:12:58;14.90;99.90
15413;DHT22;7805;49.554;7.632;2023-09-07T04:15:23;14.90;99.90
15413;DHT22;7805;49.554;7.632;2023-09-07T04:17:51;14.90;99.90
15413;DHT22;7805;49.554;7.632;2023-09-07T04:20:17;14.80;99.90
15413;DHT22;7805;49.554;7.632;2023-09-07T04:22:42;14.70;99.90
15413;DHT22;7805;49.554;7.632;2023-09-07T04:25:09;14.80;99.90
15413;DHT22;7805;49.554;7.632;2023-09-07T04:27:37;14.70;99.90
15413;DHT22;7805;49.554;7.632;2023-09-07T04:30:03;14.70;99.90
15413;DHT22;7805;49.554;7.632;2023-09-07T04:32:29;14.60;99.90
15413;DHT22;7805;49.554;7.632;2023-09-07T04:34:56;14.60;99.90
15413;DHT22;7805;49.554;7.632;2023-09-07T04:37:22;14.60;99.90
15413;DHT22;7805;49.554;7.632;2023-09-07T04:39:52;14.50;99.90
15413;DHT22;7805;49.554;7.632;2023-09-07T04:42:20;14.60;99.90
15413;DHT22;7805;49.554;7.632;2023-09-07T04:44:47;14.60;99.90
15413;DHT22;7805;49.554;7.632;2023-09-07T04:47:13;14.60;99.90
15413;DHT22;7805;49.554;7.632;2023-09-07T04:49:39;14.70;99.90
15413;DHT22;7805;49.554;7.632;2023-09-07T04:52:05;14.60;99.90
15413;DHT22;7805;49.554;7.632;2023-09-07T04:54:30;14.60;99.90
15413;DHT22;7805;49.554;7.632;2023-09-07T04:56:56;14.70;99.90
15413;DHT22;7805;49.554;7.632;2023-09-07T04:59:21;14.60;99.90
15413;DHT22;7805;49.554;7.632;2023-09-07T05:01:47;14.70;99.90
15413;DHT22;7805;49.554;7.632;2023-09-07T05:04:14;16.00;99.90
15413;DHT22;7805;49.554;7.632;2023-09-07T05:06:41;14.60;99.90
15413;DHT22;7805;49.554;7.632;2023-09-07T05:09:09;14.60;99.90
15413;DHT22;7805;49.554;7.632;2023-09-07T05:11:37;14.60;99.90
15413;DHT22;7805;49.554;7.632;2023-09-07T05:14:03;14.60;99.90
15413;DHT22;7805;49.554;7.632;2023-09-07T05:16:29;14.60;99.90
15413;DHT22;7805;49.554;7.632;2023-09-07T05:18:57;14.60;99.90
15413;DHT22;7805;49.554;7.632;2023-09-07T05:21:27;14.60;99.90
15413;DHT22;7805;49.554;7.632;2023-09-07T05:23:54;14.60;99.90
15413;DHT22;7805;49.554;7.632;2023-09-07T05:26:27;14.50;99.90
15413;DHT22;7805;49.554;7.632;2023-09-07T05:28:53;14.60;99.90
15413;DHT22;7805;49.554;7.632;2023-09-07T05:31:20;14.60;99.90
15413;DHT22;7805;49.554;7.632;2023-09-07T05:33:45;14.60;99.90
15413;DHT22;7805;49.554;7.632;2023-09-07T05:36:11;14.50;99.90
15413;DHT22;7805;49.554;7.632;2023-09-07T05:38:36;14.50;99.90
15413;DHT22;7805;49.554;7.632;2023-09-07T05:41:03;14.60;99.90
15413;DHT22;7805;49.554;7.632;2023-09-07T05:43:28;14.70;99.90
15413;DHT22;7805;49.554;7.632;2023-09-07T05:45:54;14.60;99.90
15413;DHT22;7805;49.554;7.632;2023-09-07T05:48:19;14.60;99.90
15413;DHT22;7805;49.554;7.632;2023-09-07T05:50:45;14.60;99.90
15413;DHT22;7805;49.554;7.632;2023-09-07T05:53:11;14.70;99.90
15413;DHT22;7805;49.554;7.632;2023-09-07T05:55:36;14.80;99.90
15413;DHT22;7805;49.554;7.632;2023-09-07T05:58:06;14.80;99.90
15413;DHT22;7805;49.554;7.632;2023-09-07T06:00:32;14.70;99.90
15413;DHT22;7805;49.554;7.632;2023-09-07T06:02:59;14.70;99.90
15413;DHT22;7805;49.554;7.632;2023-09-07T06:05:24;14.80;99.90
15413;DHT22;7805;49.554;7.632;2023-09-07T06:07:50;14.80;99.90
15413;DHT22;7805;49.554;7.632;2023-09-07T06:10:15;14.80;99.90
15413;DHT22;7805;49.554;7.632;2023-09-07T06:12:42;14.90;99.90
15413;DHT22;7805;49.554;7.632;2023-09-07T06:15:08;15.20;99.90
15413;DHT22;7805;49.554;7.632;2023-09-07T06:17:34;15.60;99.90
15413;DHT22;7805;49.554;7.632;2023-09-07T06:20:00;16.00;99.90
15413;DHT22;7805;49.554;7.632;2023-09-07T06:22:25;16.40;99.90
15413;DHT22;7805;49.554;7.632;2023-09-07T06:24:51;16.70;99.90
15413;DHT22;7805;49.554;7.632;2023-09-07T06:27:16;17.00;99.90
15413;DHT22;7805;49.554;7.632;2023-09-07T06:29:42;17.30;99.90
15413;DHT22;7805;49.554;7.632;2023-09-07T06:32:08;17.70;99.90
15413;DHT22;7805;49.554;7.632;2023-09-07T06:34:33;18.00;99.90
15413;DHT22;7805;49.554;7.632;2023-09-07T06:36:59;18.30;99.90
15413;DHT22;7805;49.554;7.632;2023-09-07T06:39:24;18.50;99.90
15413;DHT22;7805;49.554;7.632;2023-09-07T06:41:50;18.80;99.90
15413;DHT22;7805;49.554;7.632;2023-09-07T06:44:16;19.10;99.90
15413;DHT22;7805;49.554;7.632;2023-09-07T06:46:41;19.40;99.90
15413;DHT22;7805;49.554;7.632;2023-09-07T06:49:07;19.50;99.90
15413;DHT22;7805;49.554;7.632;2023-09-07T06:51:33;19.70;99.90
15413;DHT22;7805;49.554;7.632;2023-09-07T06:53:59;19.70;99.90
15413;DHT22;7805;49.554;7.632;2023-09-07T06:56:25;19.90;99.90
15413;DHT22;7805;49.554;7.632;2023-09-07T06:58:51;20.00;99.90
15413;DHT22;7805;49.554;7.632;2023-09-07T07:01:17;20.00;99.90
15413;DHT22;7805;49.554;7.632;2023-09-07T07:03:43;20.30;99.90
15413;DHT22;7805;49.554;7.632;2023-09-07T07:06:08;20.60;99.90
15413;DHT22;7805;49.554;7.632;2023-09-07T07:08:34;20.90;99.90
15413;DHT22;7805;49.554;7.632;2023-09-07T07:10:59;21.20;99.90
15413;DHT22;7805;49.554;7.632;2023-09-07T07:13:25;21.50;99.90
15413;DHT22;7805;49.554;7.632;2023-09-07T07:15:51;21.70;99.90
15413;DHT22;7805;49.554;7.632;2023-09-07T07:18:17;21.90;99.90
15413;DHT22;7805;49.554;7.632;2023-09-07T07:20:43;22.00;99.90
15413;DHT22;7805;49.554;7.632;2023-09-07T07:23:10;22.30;99.90
15413;DHT22;7805;49.554;7.632;2023-09-07T07:25:36;22.40;99.90
15413;DHT22;7805;49.554;7.632;2023-09-07T07:28:03;22.40;99.90
15413;DHT22;7805;49.554;7.632;2023-09-07T07:30:36;22.70;99.90
15413;DHT22;7805;49.554;7.632;2023-09-07T07:33:02;23.00;99.90
15413;DHT22;7805;49.554;7.632;2023-09-07T07:35:29;23.10;99.90
15413;DHT22;7805;49.554;7.632;2023-09-07T07:37:55;23.30;99.90
15413;DHT22;7805;49.554;7.632;2023-09-07T07:40:20;23.70;99.90
15413;DHT22;7805;49.554;7.632;2023-09-07T07:42:47;23.90;99.90
15413;DHT22;7805;49.554;7.632;2023-09-07T07:45:13;23.70;99.90
15413;DHT22;7805;49.554;7.632;2023-09-07T07:47:42;24.10;99.90
15413;DHT22;7805;49.554;7.632;2023-09-07T07:50:08;24.40;99.90
15413;DHT22;7805;49.554;7.632;2023-09-07T07:52:33;24.60;99.90
15413;DHT22;7805;49.554;7.632;2023-09-07T07:55:00;24.80;99.90
15413;DHT22;7805;49.554;7.632;2023-09-07T07:57:25;24.90;99.90
15413;DHT22;7805;49.554;7.632;2023-09-07T07:59:51;25.10;99.90
15413;DHT22;7805;49.554;7.632;2023-09-07T08:02:17;25.10;99.90
15413;DHT22;7805;49.554;7.632;2023-09-07T08:04:42;23.40;99.90
15413;DHT22;7805;49.554;7.632;2023-09-07T08:07:08;25.50;99.90
15413;DHT22;7805;49.554;7.632;2023-09-07T08:09:34;25.70;99.90
15413;DHT22;7805;49.554;7.632;2023-09-07T08:12:00;26.10;99.30
15413;DHT22;7805;49.554;7.632;2023-09-07T08:14:28;26.10;99.40
15413;DHT22;7805;49.554;7.632;2023-09-07T08:16:54;26.10;99.50
15413;DHT22;7805;49.554;7.632;2023-09-07T08:19:20;25.90;99.00
15413;DHT22;7805;49.554;7.632;2023-09-07T08:21:46;25.40;99.60
15413;DHT22;7805;49.554;7.632;2023-09-07T08:24:11;25.80;99.90
15413;DHT22;7805;49.554;7.632;2023-09-07T08:26:37;26.30;99.30
15413;DHT22;7805;49.554;7.632;2023-09-07T08:29:03;25.60;98.80
15413;DHT22;7805;49.554;7.632;2023-09-07T08:31:32;25.40;99.90
15413;DHT22;7805;49.554;7.632;2023-09-07T08:34:03;25.70;99.90
15413;DHT22;7805;49.554;7.632;2023-09-07T08:36:32;26.20;99.80
15413;DHT22;7805;49.554;7.632;2023-09-07T08:39:03;26.60;99.10
15413;DHT22;7805;49.554;7.632;2023-09-07T08:41:36;26.90;98.50
15413;DHT22;7805;49.554;7.632;2023-09-07T08:44:18;27.30;97.80
15413;DHT22;7805;49.554;7.632;2023-09-07T08:46:49;27.90;96.90
15413;DHT22;7805;49.554;7.632;2023-09-07T08:49:17;27.90;96.70
15413;DHT22;7805;49.554;7.632;2023-09-07T08:51:48;27.90;94.00
15413;DHT22;7805;49.554;7.632;2023-09-07T08:54:14;28.00;95.20
15413;DHT22;7805;49.554;7.632;2023-09-07T08:56:40;28.00;94.70
15413;DHT22;7805;49.554;7.632;2023-09-07T08:59:05;27.90;94.70
15413;DHT22;7805;49.554;7.632;2023-09-07T09:01:31;27.80;94.40
15413;DHT22;7805;49.554;7.632;2023-09-07T09:03:58;27.70;94.40
15413;DHT22;7805;49.554;7.632;2023-09-07T09:06:23;28.00;94.70
15413;DHT22;7805;49.554;7.632;2023-09-07T09:08:56;28.10;94.10
15413;DHT22;7805;49.554;7.632;2023-09-07T09:11:24;28.00;92.70
15413;DHT22;7805;49.554;7.632;2023-09-07T09:13:51;28.40;93.30
15413;DHT22;7805;49.554;7.632;2023-09-07T09:16:18;28.60;92.70
15413;DHT22;7805;49.554;7.632;2023-09-07T09:18:57;28.90;92.50
15413;DHT22;7805;49.554;7.632;2023-09-07T09:21:27;28.90;90.90
15413;DHT22;7805;49.554;7.632;2023-09-07T09:23:54;28.80;91.40
15413;DHT22;7805;49.554;7.632;2023-09-07T09:26:20;29.00;91.60
15413;DHT22;7805;49.554;7.632;2023-09-07T09:28:46;29.50;91.20
15413;DHT22;7805;49.554;7.632;2023-09-07T09:31:13;29.60;90.30
15413;DHT22;7805;49.554;7.632;2023-09-07T09:33:40;29.80;90.00
15413;DHT22;7805;49.554;7.632;2023-09-07T09:36:06;29.80;88.70
15413;DHT22;7805;49.554;7.632;2023-09-07T09:38:32;29.70;86.40
15413;DHT22;7805;49.554;7.632;2023-09-07T09:40:58;29.40;87.50
15413;DHT22;7805;49.554;7.632;2023-09-07T09:43:25;29.50;88.40
15413;DHT22;7805;49.554;7.632;2023-09-07T09:45:52;29.70;88.40
15413;DHT22;7805;49.554;7.632;2023-09-07T09:48:22;30.10;86.60
15413;DHT22;7805;49.554;7.632;2023-09-07T09:50:48;30.30;85.00
15413;DHT22;7805;49.554;7.632;2023-09-07T09:53:18;30.50;85.60
15413;DHT22;7805;49.554;7.632;2023-09-07T09:55:49;30.50;84.90
15413;DHT22;7805;49.554;7.632;2023-09-07T09:58:16;30.40;84.40
15413;DHT22;7805;49.554;7.632;2023-09-07T10:00:47;30.30;85.40
15413;DHT22;7805;49.554;7.632;2023-09-07T10:03:21;30.30;83.50
15413;DHT22;7805;49.554;7.632;2023-09-07T10:05:52;30.40;82.80
15413;DHT22;7805;49.554;7.632;2023-09-07T10:08:19;30.30;82.80
15413;DHT22;7805;49.554;7.632;2023-09-07T10:10:48;30.50;82.90
15413;DHT22;7805;49.554;7.632;2023-09-07T10:13:15;30.60;80.00
15413;DHT22;7805;49.554;7.632;2023-09-07T10:15:41;30.50;80.90
15413;DHT22;7805;49.554;7.632;2023-09-07T10:20:56;30.40;78.90
15413;DHT22;7805;49.554;7.632;2023-09-07T10:23:38;30.50;78.80
15413;DHT22;7805;49.554;7.632;2023-09-07T10:26:04;30.90;78.20
15413;DHT22;7805;49.554;7.632;2023-09-07T10:28:30;31.10;77.30
15413;DHT22;7805;49.554;7.632;2023-09-07T10:31:07;30.80;75.50
15413;DHT22;7805;49.554;7.632;2023-09-07T10:33:34;30.90;75.70
15413;DHT22;7805;49.554;7.632;2023-09-07T10:36:00;31.00;75.60
15413;DHT22;7805;49.554;7.632;2023-09-07T10:38:27;31.10;75.70
15413;DHT22;7805;49.554;7.632;2023-09-07T10:40:57;31.10;74.60
15413;DHT22;7805;49.554;7.632;2023-09-07T10:43:28;31.10;73.30
15413;DHT22;7805;49.554;7.632;2023-09-07T10:45:55;31.20;73.30
15413;DHT22;7805;49.554;7.632;2023-09-07T10:48:21;31.40;73.70
15413;DHT22;7805;49.554;7.632;2023-09-07T10:50:47;31.40;73.20
15413;DHT22;7805;49.554;7.632;2023-09-07T10:53:14;31.50;72.30
15413;DHT22;7805;49.554;7.632;2023-09-07T10:55:41;31.40;72.40
15413;DHT22;7805;49.554;7.632;2023-09-07T10:58:09;31.40;72.90
15413;DHT22;7805;49.554;7.632;2023-09-07T11:00:35;31.50;73.60
15413;DHT22;7805;49.554;7.632;2023-09-07T11:03:08;31.80;71.90
15413;DHT22;7805;49.554;7.632;2023-09-07T11:05:37;31.90;71.30
15413;DHT22;7805;49.554;7.632;2023-09-07T11:08:05;32.00;70.40
15413;DHT22;7805;49.554;7.632;2023-09-07T11:10:34;31.90;70.20
15413;DHT22;7805;49.554;7.632;2023-09-07T11:13:04;32.00;69.80
15413;DHT22;7805;49.554;7.632;2023-09-07T11:15:31;32.50;69.30
15413;DHT22;7805;49.554;7.632;2023-09-07T11:17:57;32.90;68.60
15413;DHT22;7805;49.554;7.632;2023-09-07T11:20:23;32.80;67.50
15413;DHT22;7805;49.554;7.632;2023-09-07T11:22:50;32.90;66.60
15413;DHT22;7805;49.554;7.632;2023-09-07T11:25:16;32.80;67.10
15413;DHT22;7805;49.554;7.632;2023-09-07T11:27:41;32.70;66.30
15413;DHT22;7805;49.554;7.632;2023-09-07T11:30:11;32.90;66.60
15413;DHT22;7805;49.554;7.632;2023-09-07T11:32:37;32.80;66.30
15413;DHT22;7805;49.554;7.632;2023-09-07T11:35:04;32.60;65.50
15413;DHT22;7805;49.554;7.632;2023-09-07T11:37:33;32.20;65.40
15413;DHT22;7805;49.554;7.632;2023-09-07T11:39:58;32.40;65.70
15413;DHT22;7805;49.554;7.632;2023-09-07T11:42:24;31.80;64.50
15413;DHT22;7805;49.554;7.632;2023-09-07T11:44:49;32.90;65.10
15413;DHT22;7805;49.554;7.632;2023-09-07T11:47:15;32.80;63.00
15413;DHT22;7805;49.554;7.632;2023-09-07T11:49:41;32.90;63.00
15413;DHT22;7805;49.554;7.632;2023-09-07T11:52:07;33.00;62.30
15413;DHT22;7805;49.554;7.632;2023-09-07T11:54:33;33.20;63.20
15413;DHT22;7805;49.554;7.632;2023-09-07T11:56:58;32.90;61.30
15413;DHT22;7805;49.554;7.632;2023-09-07T11:59:24;32.70;62.30
15413;DHT22;7805;49.554;7.632;2023-09-07T12:01:49;33.30;62.50
15413;DHT22;7805;49.554;7.632;2023-09-07T12:04:16;32.80;62.20
15413;DHT22;7805;49.554;7.632;2023-09-07T12:06:41;32.80;62.20
15413;DHT22;7805;49.554;7.632;2023-09-07T12:09:07;32.90;61.30
15413;DHT22;7805;49.554;7.632;2023-09-07T12:11:35;33.10;61.50
15413;DHT22;7805;49.554;7.632;2023-09-07T12:14:00;33.10;59.90
15413;DHT22;7805;49.554;7.632;2023-09-07T12:16:26;33.20;60.00
15413;DHT22;7805;49.554;7.632;2023-09-07T12:18:52;33.40;60.00
15413;DHT22;7805;49.554;7.632;2023-09-07T12:21:18;33.10;59.10
15413;DHT22;7805;49.554;7.632;2023-09-07T12:23:44;33.20;59.20
15413;DHT22;7805;49.554;7.632;2023-09-07T12:26:10;33.40;59.20
15413;DHT22;7805;49.554;7.632;2023-09-07T12:28:35;33.70;59.10
15413;DHT22;7805;49.554;7.632;2023-09-07T12:31:02;33.60;58.60
15413;DHT22;7805;49.554;7.632;2023-09-07T12:33:28;33.90;58.10
15413;DHT22;7805;49.554;7.632;2023-09-07T12:35:55;34.40;57.00
15413;DHT22;7805;49.554;7.632;2023-09-07T12:38:21;34.50;57.00
15413;DHT22;7805;49.554;7.632;2023-09-07T12:40:52;34.40;56.00
15413;DHT22;7805;49.554;7.632;2023-09-07T12:43:18;34.40;56.40
15413;DHT22;7805;49.554;7.632;2023-09-07T12:45:44;34.50;56.10
15413;DHT22;7805;49.554;7.632;2023-09-07T12:48:10;34.60;55.60
15413;DHT22;7805;49.554;7.632;2023-09-07T12:50:36;34.70;54.40
15413;DHT22;7805;49.554;7.632;2023-09-07T12:53:01;33.90;53.90
15413;DHT22;7805;49.554;7.632;2023-09-07T12:55:27;34.00;55.50
15413;DHT22;7805;49.554;7.632;2023-09-07T12:57:55;34.40;55.10
15413;DHT22;7805;49.554;7.632;2023-09-07T13:00:27;34.60;54.90
15413;DHT22;7805;49.554;7.632;2023-09-07T13:02:54;34.60;54.00
15413;DHT22;7805;49.554;7.632;2023-09-07T13:05:20;34.40;53.50
15413;DHT22;7805;49.554;7.632;2023-09-07T13:07:46;32.20;52.30
15413;DHT22;7805;49.554;7.632;2023-09-07T13:10:11;34.60;53.90
15413;DHT22;7805;49.554;7.632;2023-09-07T13:12:37;34.80;53.50
15413;DHT22;7805;49.554;7.632;2023-09-07T13:15:04;34.70;53.10
15413;DHT22;7805;49.554;7.632;2023-09-07T13:17:30;34.90;53.10
15413;DHT22;7805;49.554;7.632;2023-09-07T13:19:56;35.40;53.30
15413;DHT22;7805;49.554;7.632;2023-09-07T13:22:21;35.60;52.60
15413;DHT22;7805;49.554;7.632;2023-09-07T13:24:47;35.80;52.00
15413;DHT22;7805;49.554;7.632;2023-09-07T13:27:13;35.70;52.10
15413;DHT22;7805;49.554;7.632;2023-09-07T13:29:38;35.70;52.50
15413;DHT22;7805;49.554;7.632;2023-09-07T13:32:04;35.30;53.10
15413;DHT22;7805;49.554;7.632;2023-09-07T13:34:30;35.40;53.40
15413;DHT22;7805;49.554;7.632;2023-09-07T13:36:55;35.30;53.00
15413;DHT22;7805;49.554;7.632;2023-09-07T13:39:22;35.30;53.10
15413;DHT22;7805;49.554;7.632;2023-09-07T13:41:47;35.40;53.60
15413;DHT22;7805;49.554;7.632;2023-09-07T13:44:16;35.50;53.00
15413;DHT22;7805;49.554;7.632;2023-09-07T13:46:43;35.40;53.30
15413;DHT22;7805;49.554;7.632;2023-09-07T13:49:09;37.20;54.60
15413;DHT22;7805;49.554;7.632;2023-09-07T13:51:35;35.30;53.30
15413;DHT22;7805;49.554;7.632;2023-09-07T13:54:04;35.20;52.90
15413;DHT22;7805;49.554;7.632;2023-09-07T13:56:31;35.10;53.80
15413;DHT22;7805;49.554;7.632;2023-09-07T13:58:56;35.40;53.60
15413;DHT22;7805;49.554;7.632;2023-09-07T14:01:22;35.40;53.70
15413;DHT22;7805;49.554;7.632;2023-09-07T14:03:49;35.50;53.10
15413;DHT22;7805;49.554;7.632;2023-09-07T14:06:14;35.70;52.90
15413;DHT22;7805;49.554;7.632;2023-09-07T14:08:40;35.50;52.60
15413;DHT22;7805;49.554;7.632;2023-09-07T14:11:05;35.60;52.80
15413;DHT22;7805;49.554;7.632;2023-09-07T14:13:32;35.90;52.80
15413;DHT22;7805;49.554;7.632;2023-09-07T14:16:00;36.10;52.60
15413;DHT22;7805;49.554;7.632;2023-09-07T14:18:26;35.90;52.20
15413;DHT22;7805;49.554;7.632;2023-09-07T14:20:51;35.80;52.10
15413;DHT22;7805;49.554;7.632;2023-09-07T14:23:17;35.60;52.40
15413;DHT22;7805;49.554;7.632;2023-09-07T14:25:46;35.60;52.50
15413;DHT22;7805;49.554;7.632;2023-09-07T14:28:13;35.60;52.50
15413;DHT22;7805;49.554;7.632;2023-09-07T14:30:39;35.50;52.70
15413;DHT22;7805;49.554;7.632;2023-09-07T14:33:04;35.40;53.10
15413;DHT22;7805;49.554;7.632;2023-09-07T14:35:30;35.50;53.50
15413;DHT22;7805;49.554;7.632;2023-09-07T14:37:56;35.50;53.10
15413;DHT22;7805;49.554;7.632;2023-09-07T14:40:21;35.20;52.90
15413;DHT22;7805;49.554;7.632;2023-09-07T14:42:49;35.00;53.70
15413;DHT22;7805;49.554;7.632;2023-09-07T14:45:16;35.10;54.00
15413;DHT22;7805;49.554;7.632;2023-09-07T14:47:42;35.00;53.80
15413;DHT22;7805;49.554;7.632;2023-09-07T14:50:08;35.00;54.00
15413;DHT22;7805;49.554;7.632;2023-09-07T14:52:34;35.00;54.20
15413;DHT22;7805;49.554;7.632;2023-09-07T14:55:07;35.00;54.10
15413;DHT22;7805;49.554;7.632;2023-09-07T14:57:33;35.00;54.30
15413;DHT22;7805;49.554;7.632;2023-09-07T15:00:00;35.00;54.60
15413;DHT22;7805;49.554;7.632;2023-09-07T15:02:26;34.90;55.00
15413;DHT22;7805;49.554;7.632;2023-09-07T15:04:51;34.80;55.40
15413;DHT22;7805;49.554;7.632;2023-09-07T15:07:17;34.60;55.20
15413;DHT22;7805;49.554;7.632;2023-09-07T15:09:44;34.90;55.20
15413;DHT22;7805;49.554;7.632;2023-09-07T15:12:09;35.10;55.60
15413;DHT22;7805;49.554;7.632;2023-09-07T15:14:36;35.00;54.40
15413;DHT22;7805;49.554;7.632;2023-09-07T15:17:02;34.70;54.90
15413;DHT22;7805;49.554;7.632;2023-09-07T15:19:27;34.70;55.10
15413;DHT22;7805;49.554;7.632;2023-09-07T15:21:53;34.80;54.80
15413;DHT22;7805;49.554;7.632;2023-09-07T15:24:19;35.00;54.60
15413;DHT22;7805;49.554;7.632;2023-09-07T15:26:45;35.00;54.50
15413;DHT22;7805;49.554;7.632;2023-09-07T15:29:11;35.10;54.10
15413;DHT22;7805;49.554;7.632;2023-09-07T15:31:37;35.00;54.10
15413;DHT22;7805;49.554;7.632;2023-09-07T15:34:03;35.10;54.50
15413;DHT22;7805;49.554;7.632;2023-09-07T15:36:29;34.90;54.60
15413;DHT22;7805;49.554;7.632;2023-09-07T15:38:55;34.90;54.80
15413;DHT22;7805;49.554;7.632;2023-09-07T15:41:20;35.00;54.60
15413;DHT22;7805;49.554;7.632;2023-09-07T15:43:46;35.10;54.10